Time,TemperatureF,DewpointF,PressureIn,WindDirection,WindDirectionDegrees,WindSpeedMPH,WindSpeedGustMPH,Humidity,HourlyPrecipIn,Conditions,Clouds,dailyrainin,SoftwareType,DateUTC
2013-04-07 00:00:00,44.8,35.2,29.80,SE,144,0.0,2.9,69,0.00,,,-99.99,meteobridge,2013-04-07 07:00:00,
2013-04-07 00:15:00,44.8,35.6,29.80,SSE,154,0.9,2.0,70,0.00,,,0.00,meteobridge,2013-04-07 07:15:00,
2013-04-07 00:45:00,44.8,35.6,29.80,SSE,160,0.0,4.0,70,0.00,,,0.00,meteobridge,2013-04-07 07:45:00,
2013-04-07 01:00:00,44.4,36.0,29.79,SSE,149,0.0,0.9,72,0.00,,,0.00,meteobridge,2013-04-07 08:00:00,
2013-04-07 01:15:00,44.1,36.0,29.79,SE,134,0.9,2.0,73,0.00,,,0.00,meteobridge,2013-04-07 08:15:00,
2013-04-07 01:30:00,44.1,36.3,29.78,SSE,155,0.0,2.9,74,0.00,,,0.00,meteobridge,2013-04-07 08:30:00,
2013-04-07 01:45:00,44.1,36.7,29.78,SE,127,0.0,4.0,75,0.00,,,0.00,meteobridge,2013-04-07 08:45:00,
2013-04-07 02:00:00,43.7,37.0,29.78,SSW,192,0.9,4.0,77,0.00,,,0.00,meteobridge,2013-04-07 09:00:00,
2013-04-07 02:15:00,43.3,37.2,29.77,SE,138,0.9,4.0,79,0.00,,,0.00,meteobridge,2013-04-07 09:15:00,
2013-04-07 02:30:00,43.2,37.8,29.76,SE,143,0.9,2.9,81,0.00,,,0.00,meteobridge,2013-04-07 09:30:00,
2013-04-07 02:45:00,43.0,37.9,29.75,SSE,163,0.0,0.9,82,0.00,,,0.00,meteobridge,2013-04-07 09:45:00,
2013-04-07 03:01:00,42.6,37.8,29.74,SE,138,0.0,0.9,83,0.00,,,0.00,meteobridge,2013-04-07 10:01:00,
2013-04-07 03:16:00,42.4,37.9,29.73,SSE,162,0.0,0.0,84,0.00,,,0.00,meteobridge,2013-04-07 10:16:00,
2013-04-07 03:46:00,42.3,37.8,29.70,South,180,0.0,0.0,84,0.00,,,0.00,meteobridge,2013-04-07 10:46:00,
2013-04-07 04:01:00,42.1,37.6,29.70,SE,146,0.0,0.0,84,0.00,,,0.00,meteobridge,2013-04-07 11:01:00,
2013-04-07 04:16:00,41.9,37.4,29.69,SE,138,0.0,0.0,84,0.00,,,0.00,meteobridge,2013-04-07 11:16:00,
2013-04-07 04:31:00,41.7,37.6,29.68,SSE,153,0.0,0.0,85,0.00,,,0.00,meteobridge,2013-04-07 11:31:00,
2013-04-07 04:47:00,41.5,37.9,29.67,South,171,0.0,0.0,87,0.00,,,0.00,meteobridge,2013-04-07 11:47:00,
2013-04-07 05:02:00,41.4,38.1,29.67,SSE,155,0.0,0.0,88,0.00,,,0.00,meteobridge,2013-04-07 12:02:00,
2013-04-07 05:17:00,40.8,38.1,29.66,SSE,155,0.0,0.0,90,0.00,,,0.00,meteobridge,2013-04-07 12:17:00,
2013-04-07 05:32:00,40.6,38.3,29.66,SSE,155,0.0,0.0,91,0.00,,,0.00,meteobridge,2013-04-07 12:32:00,
2013-04-07 05:47:00,40.6,37.9,29.65,SSE,155,0.0,0.0,90,0.00,,,0.00,meteobridge,2013-04-07 12:47:00,
2013-04-07 06:02:00,40.6,38.3,29.65,SSE,155,0.0,0.0,91,0.01,,,0.01,meteobridge,2013-04-07 13:02:00,
2013-04-07 06:17:00,40.3,38.1,29.65,SSE,155,0.0,0.0,92,0.02,,,0.02,meteobridge,2013-04-07 13:17:00,
2013-04-07 06:32:00,40.1,38.3,29.64,SSE,155,0.0,0.0,93,0.04,,,0.04,meteobridge,2013-04-07 13:32:00,
2013-04-07 06:47:00,39.9,38.3,29.64,SSE,155,0.0,0.0,94,0.04,,,0.04,meteobridge,2013-04-07 13:47:00,
2013-04-07 07:02:00,39.9,38.7,29.63,SSE,155,0.0,0.0,95,0.04,,,0.05,meteobridge,2013-04-07 14:02:00,
2013-04-07 07:18:00,40.1,38.5,29.62,SSE,155,0.0,0.0,94,0.02,,,0.05,meteobridge,2013-04-07 14:18:00,
2013-04-07 07:33:00,40.3,38.7,29.62,ESE,118,0.0,0.9,94,0.02,,,0.06,meteobridge,2013-04-07 14:33:00,
2013-04-07 07:48:00,40.3,38.7,29.61,ESE,118,0.0,0.0,94,0.03,,,0.07,meteobridge,2013-04-07 14:48:00,
2013-04-07 08:03:00,40.5,38.8,29.61,ESE,118,0.0,0.0,94,0.03,,,0.08,meteobridge,2013-04-07 15:03:00,
2013-04-07 08:18:00,40.5,38.8,29.60,ESE,118,0.0,0.0,94,0.05,,,0.10,meteobridge,2013-04-07 15:18:00,
2013-04-07 08:33:00,40.5,38.8,29.60,ESE,114,0.0,0.0,94,0.05,,,0.11,meteobridge,2013-04-07 15:33:00,
2013-04-07 08:48:00,40.8,39.2,29.59,ESE,114,0.0,0.0,94,0.05,,,0.12,meteobridge,2013-04-07 15:48:00,
2013-04-07 09:03:00,41.2,39.4,29.58,ESE,114,0.0,0.0,93,0.04,,,0.12,meteobridge,2013-04-07 16:03:00,
2013-04-07 09:18:00,41.0,38.7,29.58,SSE,150,0.0,0.0,91,0.03,,,0.13,meteobridge,2013-04-07 16:18:00,
2013-04-07 09:33:00,41.4,39.2,29.58,ENE,61,0.0,0.0,92,0.02,,,0.13,meteobridge,2013-04-07 16:33:00,
2013-04-07 09:48:00,41.5,39.4,29.57,East,94,0.0,0.9,92,0.01,,,0.13,meteobridge,2013-04-07 16:48:00,
2013-04-07 10:04:00,42.3,40.5,29.57,ENE,59,0.0,0.0,93,0.01,,,0.13,meteobridge,2013-04-07 17:04:00,
2013-04-07 10:19:00,43.2,40.6,29.56,ENE,72,0.0,0.9,91,0.00,,,0.13,meteobridge,2013-04-07 17:19:00,
2013-04-07 10:34:00,44.6,41.5,29.56,SSE,158,0.0,0.0,89,0.00,,,0.13,meteobridge,2013-04-07 17:34:00,
2013-04-07 10:49:00,45.0,42.3,29.56,East,101,0.0,0.0,90,0.02,,,0.15,meteobridge,2013-04-07 17:49:00,
2013-04-07 11:04:00,45.1,43.2,29.56,SE,139,2.0,2.0,93,0.04,,,0.17,meteobridge,2013-04-07 18:04:00,
2013-04-07 11:19:00,45.5,43.3,29.55,SSE,147,0.9,2.0,92,0.05,,,0.18,meteobridge,2013-04-07 18:19:00,
2013-04-07 11:34:00,46.0,44.4,29.54,SE,134,0.0,0.0,94,0.10,,,0.23,meteobridge,2013-04-07 18:34:00,
2013-04-07 11:49:00,48.4,45.0,29.54,West,262,0.9,4.9,88,0.07,,,0.23,meteobridge,2013-04-07 18:49:00,
2013-04-07 12:04:00,47.8,43.5,29.54,SE,132,0.0,6.0,85,0.06,,,0.23,meteobridge,2013-04-07 19:04:00,
2013-04-07 12:19:00,49.3,45.0,29.54,SE,144,2.0,6.0,85,0.04,,,0.23,meteobridge,2013-04-07 19:19:00,
2013-04-07 12:35:00,48.0,42.8,29.54,East,91,0.0,6.0,82,0.00,,,0.23,meteobridge,2013-04-07 19:35:00,
2013-04-07 12:50:00,50.2,44.2,29.54,WNW,297,0.0,10.1,80,0.00,,,0.23,meteobridge,2013-04-07 19:50:00,
2013-04-07 13:05:00,49.5,43.5,29.54,NW,306,0.9,2.9,80,0.00,,,0.23,meteobridge,2013-04-07 20:05:00,
2013-04-07 13:20:00,49.6,41.7,29.54,NW,314,2.0,8.1,74,0.00,,,0.23,meteobridge,2013-04-07 20:20:00,
2013-04-07 13:35:00,50.9,43.3,29.54,SE,131,0.0,2.0,75,0.00,,,0.23,meteobridge,2013-04-07 20:35:00,
2013-04-07 13:50:00,52.2,42.3,29.55,SSE,162,2.9,2.9,69,0.00,,,0.23,meteobridge,2013-04-07 20:50:00,
2013-04-07 14:05:00,53.1,42.1,29.55,WNW,290,0.0,2.9,66,0.00,,,0.23,meteobridge,2013-04-07 21:05:00,
2013-04-07 14:20:00,52.9,41.9,29.56,SSW,197,0.0,6.0,66,0.00,,,0.23,meteobridge,2013-04-07 21:20:00,
2013-04-07 14:35:00,53.2,41.4,29.56,WNW,283,4.0,11.0,64,0.00,,,0.23,meteobridge,2013-04-07 21:35:00,
2013-04-07 14:50:00,51.6,38.1,29.57,SE,138,0.9,4.0,60,0.00,,,0.23,meteobridge,2013-04-07 21:50:00,
2013-04-07 15:05:00,51.1,37.8,29.57,SE,124,2.9,4.0,60,0.00,,,0.23,meteobridge,2013-04-07 22:05:00,
2013-04-07 15:20:00,47.8,39.2,29.58,WNW,303,0.0,2.0,72,0.00,,,0.23,meteobridge,2013-04-07 22:20:00,
2013-04-07 15:35:00,47.5,38.8,29.58,SE,131,0.0,2.9,72,0.01,,,0.24,meteobridge,2013-04-07 22:35:00,
2013-04-07 15:50:00,50.9,39.9,29.58,NW,316,0.0,2.0,66,0.01,,,0.24,meteobridge,2013-04-07 22:50:00,
2013-04-07 16:05:00,50.4,37.4,29.59,West,275,2.0,2.9,61,0.01,,,0.24,meteobridge,2013-04-07 23:05:00,
2013-04-07 16:20:00,49.3,36.9,29.60,SSE,160,0.0,2.0,62,0.01,,,0.24,meteobridge,2013-04-07 23:20:00,
2013-04-07 16:35:00,48.9,35.6,29.61,WNW,303,0.0,0.9,60,0.00,,,0.24,meteobridge,2013-04-07 23:35:00,
2013-04-07 16:50:00,47.8,38.1,29.62,ESE,114,0.0,0.9,69,0.00,,,0.24,meteobridge,2013-04-07 23:50:00,
2013-04-07 17:05:00,49.1,34.9,29.62,WSW,238,0.9,4.0,58,0.00,,,0.24,meteobridge,2013-04-08 00:05:00,
2013-04-07 17:20:00,49.6,35.4,29.63,SSE,157,0.0,2.0,58,0.00,,,0.24,meteobridge,2013-04-08 00:20:00,
2013-04-07 17:35:00,49.3,34.7,29.63,WSW,251,0.0,0.9,57,0.00,,,0.24,meteobridge,2013-04-08 00:35:00,
2013-04-07 17:50:00,48.6,32.2,29.64,SE,138,2.9,4.0,53,0.00,,,0.24,meteobridge,2013-04-08 00:50:00,
2013-04-07 18:21:00,45.3,36.1,29.64,SSE,165,0.9,0.9,70,0.00,,,0.24,meteobridge,2013-04-08 01:21:00,
2013-04-07 18:36:00,44.8,35.2,29.65,SSW,193,0.0,2.9,69,0.00,,,0.24,meteobridge,2013-04-08 01:36:00,
2013-04-07 19:06:00,43.5,34.7,29.65,South,186,0.9,2.0,71,0.00,,,0.24,meteobridge,2013-04-08 02:06:00,
2013-04-07 19:21:00,42.8,34.7,29.66,SE,130,0.9,6.0,73,0.00,,,0.24,meteobridge,2013-04-08 02:21:00,
2013-04-07 19:36:00,42.3,34.5,29.67,SSE,153,2.9,2.9,74,0.00,,,0.24,meteobridge,2013-04-08 02:36:00,
2013-04-07 19:51:00,42.3,34.9,29.67,South,173,6.0,6.0,75,0.00,,,0.24,meteobridge,2013-04-08 02:51:00,
2013-04-07 20:06:00,42.1,35.1,29.68,SSE,165,2.0,2.0,76,0.00,,,0.24,meteobridge,2013-04-08 03:06:00,
2013-04-07 20:21:00,41.7,34.7,29.69,West,281,0.0,4.0,76,0.00,,,0.24,meteobridge,2013-04-08 03:21:00,
2013-04-07 20:36:00,41.2,35.4,29.70,South,175,4.0,4.0,80,0.00,,,0.24,meteobridge,2013-04-08 03:36:00,
2013-04-07 20:51:00,40.3,35.2,29.71,SSE,155,2.0,4.0,82,0.00,,,0.24,meteobridge,2013-04-08 03:51:00,
2013-04-07 21:06:00,39.6,34.9,29.71,SSE,167,0.0,2.9,83,0.00,,,0.24,meteobridge,2013-04-08 04:06:00,
2013-04-07 21:21:00,39.0,34.5,29.72,SSE,167,2.0,4.0,84,0.00,,,0.24,meteobridge,2013-04-08 04:21:00,
2013-04-07 21:36:00,38.8,34.3,29.72,SSE,152,0.0,4.9,84,0.00,,,0.24,meteobridge,2013-04-08 04:36:00,
2013-04-07 21:51:00,38.7,34.5,29.73,South,170,2.0,2.9,85,0.00,,,0.24,meteobridge,2013-04-08 04:51:00,
2013-04-07 22:06:00,38.7,34.5,29.74,SSE,161,2.0,2.9,85,0.00,,,0.24,meteobridge,2013-04-08 05:06:00,
2013-04-07 22:21:00,39.0,34.5,29.74,SSE,154,0.0,6.9,84,0.00,,,0.24,meteobridge,2013-04-08 05:21:00,
2013-04-07 22:36:00,39.0,34.3,29.75,SSW,193,2.0,2.9,83,0.00,,,0.24,meteobridge,2013-04-08 05:36:00,
2013-04-07 22:51:00,39.2,34.5,29.75,South,190,0.0,0.9,83,0.00,,,0.24,meteobridge,2013-04-08 05:51:00,
2013-04-07 23:06:00,38.8,34.3,29.75,NW,309,0.0,0.0,84,0.00,,,0.24,meteobridge,2013-04-08 06:06:00,
2013-04-07 23:22:00,38.7,34.5,29.75,SSW,212,0.0,0.0,85,0.00,,,0.24,meteobridge,2013-04-08 06:22:00,
2013-04-07 23:37:00,38.7,34.5,29.75,SSE,157,0.9,2.0,85,0.00,,,0.24,meteobridge,2013-04-08 06:37:00,
2013-04-07 23:52:00,38.7,34.2,29.76,WSW,241,0.0,4.0,84,0.00,,,0.24,meteobridge,2013-04-08 06:52:00,